Opglabbeek, Belgium
Current Conditions -  °F | °C
As of 2:55 AM on Tuesday 23 Dec 2014 (Local Time) from EBBL Reporting Station
Broken Clouds Broken Clouds  
Wind Chill: 52°   Ceiling: 2400
Heat Index: 52°   Visibility: 6mi
Dew Point: 45°   Wind: 20mph
Humidity: 76%   Direction: 250°WSW
Pressure: 30.09"   Gusts: NA
Location:  51.04°N, 5.58°E
Report Text: EBBL 230155Z 25017KT 9999 SCT020 BKN024 11/07 Q1019 WHT
Loading
Personal Weather Stations






























Interactive Weather Map New forecast layout! Learn more

10-Day Weather Forecast

Advertisements
Track Severe Weather on mobile